createdAt,value
2022-10-08T00:00:14.548Z,16.40
2022-10-08T00:00:50.681Z,18.10
2022-10-08T00:01:24.239Z,16.20
2022-10-08T00:01:56.205Z,16.38
2022-10-08T00:02:29.624Z,17.20
2022-10-08T00:03:02.348Z,17.05
2022-10-08T00:03:36.974Z,16.05
2022-10-08T00:04:11.491Z,15.68
2022-10-08T00:04:44.266Z,16.80
2022-10-08T00:05:16.488Z,17.63
2022-10-08T00:05:55.975Z,18.77
2022-10-08T00:06:30.801Z,18.95
2022-10-08T00:07:02.585Z,20.05
2022-10-08T00:07:34.352Z,20.10
2022-10-08T00:08:07.415Z,17.60
2022-10-08T00:08:41.238Z,16.85
2022-10-08T00:09:13.970Z,17.45
2022-10-08T00:09:45.739Z,16.48
2022-10-08T00:10:17.686Z,18.33
2022-10-08T00:10:53.436Z,15.95
2022-10-08T00:11:28.017Z,17.75
2022-10-08T00:11:59.770Z,16.02
2022-10-08T00:12:31.540Z,19.05
2022-10-08T00:13:04.683Z,17.50
2022-10-08T00:13:41.611Z,15.95
2022-10-08T00:14:13.391Z,16.48
2022-10-08T00:14:45.260Z,18.00
2022-10-08T00:15:18.140Z,18.10
2022-10-08T00:15:51.706Z,18.00
2022-10-08T00:16:26.255Z,17.90
2022-10-08T00:16:59.040Z,18.20
2022-10-08T00:17:30.889Z,16.77
2022-10-08T00:18:02.705Z,17.05
2022-10-08T00:18:34.543Z,15.85
2022-10-08T00:19:09.392Z,15.57
2022-10-08T00:19:41.172Z,15.65
2022-10-08T00:20:12.944Z,16.30
2022-10-08T00:20:44.837Z,17.25
2022-10-08T00:21:20.634Z,16.30
2022-10-08T00:21:56.781Z,15.95
2022-10-08T00:22:28.582Z,16.95
2022-10-08T00:23:01.876Z,16.52
2022-10-08T00:23:35.491Z,16.00
2022-10-08T00:24:08.637Z,17.70
2022-10-08T00:24:41.499Z,17.17
2022-10-08T00:25:13.456Z,16.70
2022-10-08T00:25:45.635Z,16.85
2022-10-08T00:26:23.534Z,17.10
2022-10-08T00:26:55.329Z,17.13
2022-10-08T00:27:29.244Z,17.05
2022-10-08T00:28:01.059Z,16.40
2022-10-08T00:28:33.416Z,16.88
2022-10-08T00:29:07.953Z,15.25
2022-10-08T00:29:39.796Z,16.25
2022-10-08T00:30:12.864Z,15.27
2022-10-08T00:30:45.739Z,15.85
2022-10-08T00:31:22.000Z,17.00
2022-10-08T00:31:53.858Z,16.83
2022-10-08T00:32:26.684Z,17.17
2022-10-08T00:33:00.039Z,15.20
2022-10-08T00:33:32.020Z,15.45
2022-10-08T00:34:06.728Z,17.42
2022-10-08T00:34:39.780Z,16.15
2022-10-08T00:35:11.744Z,16.42
2022-10-08T00:35:44.497Z,16.70
2022-10-08T00:36:16.592Z,14.85
2022-10-08T00:36:51.083Z,15.98
2022-10-08T00:37:25.541Z,15.18
2022-10-08T00:37:57.279Z,15.75
2022-10-08T00:38:29.077Z,14.52
2022-10-08T00:39:04.512Z,14.80
2022-10-08T00:39:36.266Z,15.68
2022-10-08T00:40:08.771Z,15.02
2022-10-08T00:40:45.753Z,15.40
2022-10-08T00:41:20.663Z,14.75
2022-10-08T00:41:55.359Z,19.48
2022-10-08T00:42:28.210Z,22.08
2022-10-08T00:43:00.257Z,18.67
2022-10-08T00:43:43.989Z,20.52
2022-10-08T00:44:51.248Z,23.10
2022-10-08T00:45:23.217Z,15.70
2022-10-08T00:45:56.485Z,15.80
2022-10-08T00:46:35.732Z,15.52
2022-10-08T00:47:14.744Z,13.70
2022-10-08T00:47:49.008Z,15.52
2022-10-08T00:48:25.581Z,15.30
2022-10-08T00:49:02.429Z,13.43
2022-10-08T00:49:35.255Z,14.45
2022-10-08T00:50:11.705Z,15.73
2022-10-08T00:50:43.694Z,14.93
2022-10-08T00:51:16.462Z,13.85
2022-10-08T00:51:52.589Z,14.75
2022-10-08T00:52:26.941Z,14.35
2022-10-08T00:53:02.668Z,14.18
2022-10-08T00:53:34.775Z,14.75
2022-10-08T00:54:07.229Z,14.40
2022-10-08T00:54:39.022Z,14.27
2022-10-08T00:55:13.519Z,14.07
2022-10-08T00:55:45.309Z,13.10
2022-10-08T00:56:17.165Z,13.57
2022-10-08T00:56:53.306Z,12.52
2022-10-08T00:57:26.840Z,13.30
2022-10-08T00:58:03.076Z,17.10
2022-10-08T00:58:36.538Z,13.70
2022-10-08T00:59:10.323Z,14.02
2022-10-08T00:59:42.108Z,14.95
2022-10-08T01:00:16.989Z,13.07
2022-10-08T01:00:49.751Z,12.75
2022-10-08T01:01:21.657Z,13.23
2022-10-08T01:01:56.289Z,14.40
2022-10-08T01:02:28.180Z,13.50
2022-10-08T01:03:00.670Z,14.20
2022-10-08T01:03:32.403Z,13.57
2022-10-08T01:04:07.622Z,13.57
2022-10-08T01:04:40.753Z,14.00
2022-10-08T01:05:15.518Z,13.45
2022-10-08T01:05:55.136Z,13.95
2022-10-08T01:06:29.848Z,13.68
2022-10-08T01:07:11.389Z,13.25
2022-10-08T01:07:51.001Z,13.02
2022-10-08T01:08:31.866Z,12.75
2022-10-08T01:09:10.639Z,12.50
2022-10-08T01:09:48.751Z,13.10
2022-10-08T01:10:31.005Z,12.75
2022-10-08T01:11:09.973Z,13.30
2022-10-08T01:11:47.861Z,13.73
2022-10-08T01:12:27.938Z,13.98
2022-10-08T01:13:18.134Z,13.95
2022-10-08T01:13:58.120Z,13.35
2022-10-08T01:14:34.969Z,12.85
2022-10-08T01:15:15.752Z,13.43
2022-10-08T01:15:56.025Z,13.73
2022-10-08T01:16:34.833Z,13.23
2022-10-08T01:17:17.194Z,13.57
2022-10-08T01:17:56.705Z,12.50
2022-10-08T01:18:35.217Z,13.57
2022-10-08T01:19:38.234Z,11.88
2022-10-08T01:20:29.491Z,12.90
2022-10-08T01:21:09.917Z,12.35
2022-10-08T01:21:53.333Z,12.32
2022-10-08T01:22:38.779Z,12.30
2022-10-08T01:23:34.240Z,14.27
2022-10-08T01:24:48.744Z,12.75
2022-10-08T01:25:34.293Z,13.23
2022-10-08T01:26:24.540Z,12.80
2022-10-08T01:27:01.243Z,12.52
2022-10-08T01:27:39.209Z,14.18
2022-10-08T01:28:19.740Z,12.90
2022-10-08T01:28:57.173Z,12.93
2022-10-08T01:29:36.184Z,12.98
2022-10-08T01:30:12.669Z,12.32
2022-10-08T01:30:53.027Z,13.88
2022-10-08T01:31:30.919Z,13.02
2022-10-08T01:32:08.771Z,13.43
2022-10-08T01:32:48.692Z,13.93
2022-10-08T01:33:25.480Z,13.88
2022-10-08T01:34:01.534Z,12.40
2022-10-08T01:34:40.710Z,11.93
2022-10-08T01:35:19.401Z,13.23
2022-10-08T01:35:57.106Z,13.07
2022-10-08T01:36:36.810Z,12.13
2022-10-08T01:37:21.039Z,13.93
2022-10-08T01:37:56.111Z,12.65
2022-10-08T01:38:33.401Z,13.25
2022-10-08T01:39:11.729Z,14.38
2022-10-08T01:39:47.398Z,13.30
2022-10-08T01:40:21.948Z,12.15
2022-10-08T01:40:59.031Z,12.35
2022-10-08T01:41:33.997Z,12.27
2022-10-08T01:42:08.398Z,13.52
2022-10-08T01:42:42.136Z,12.68
2022-10-08T01:43:18.258Z,11.52
2022-10-08T01:43:55.303Z,12.65
2022-10-08T01:44:32.637Z,12.60
2022-10-08T01:45:10.134Z,12.75
2022-10-08T01:45:46.807Z,12.07
2022-10-08T01:46:22.366Z,11.50
2022-10-08T01:46:59.175Z,12.77
2022-10-08T01:47:31.494Z,12.05
2022-10-08T01:48:07.071Z,12.70
2022-10-08T01:48:43.052Z,12.43
2022-10-08T01:49:18.541Z,12.40
2022-10-08T01:49:54.400Z,12.55
2022-10-08T01:50:31.545Z,12.32
2022-10-08T01:51:08.958Z,12.20
2022-10-08T01:51:47.080Z,12.20
2022-10-08T01:52:25.237Z,12.20
2022-10-08T01:53:00.669Z,13.32
2022-10-08T01:53:37.501Z,12.05
2022-10-08T01:54:15.250Z,11.68
2022-10-08T01:54:49.968Z,11.65
2022-10-08T01:55:28.326Z,10.80
2022-10-08T01:56:05.167Z,12.30
2022-10-08T01:56:39.627Z,11.75
2022-10-08T01:57:11.821Z,12.05
2022-10-08T01:57:47.691Z,12.50
2022-10-08T01:58:27.673Z,11.90
2022-10-08T01:59:06.022Z,11.63
2022-10-08T01:59:42.754Z,11.60
2022-10-08T02:00:15.671Z,12.68
2022-10-08T02:00:50.844Z,12.18
2022-10-08T02:01:27.732Z,11.68
2022-10-08T02:02:07.067Z,10.73
2022-10-08T02:02:39.659Z,12.60
2022-10-08T02:03:11.574Z,11.63
2022-10-08T02:04:03.406Z,12.32
2022-10-08T02:04:37.452Z,10.73
2022-10-08T02:05:11.391Z,11.98
2022-10-08T02:05:50.328Z,11.27
2022-10-08T02:06:22.232Z,11.70
2022-10-08T02:06:58.171Z,12.23
2022-10-08T02:07:35.267Z,11.10
2022-10-08T02:08:07.050Z,11.02
2022-10-08T02:08:40.018Z,11.20
2022-10-08T02:09:11.914Z,11.73
2022-10-08T02:09:45.777Z,11.68
2022-10-08T02:10:22.173Z,10.82
2022-10-08T02:10:54.097Z,10.85
2022-10-08T02:11:25.878Z,10.88
2022-10-08T02:11:57.756Z,11.43
2022-10-08T02:12:31.507Z,12.18
2022-10-08T02:13:04.722Z,11.32
2022-10-08T02:13:36.753Z,10.98
2022-10-08T02:14:09.756Z,12.10
2022-10-08T02:14:47.321Z,12.10
2022-10-08T02:15:22.464Z,12.18
2022-10-08T02:16:01.226Z,11.10
2022-10-08T02:16:35.281Z,11.38
2022-10-08T02:17:18.266Z,11.02
2022-10-08T02:17:57.705Z,10.90
2022-10-08T02:18:37.294Z,11.07
2022-10-08T02:19:14.925Z,11.25
2022-10-08T02:19:54.329Z,11.82
2022-10-08T02:20:32.274Z,11.15
2022-10-08T02:21:08.827Z,11.02
2022-10-08T02:21:43.883Z,10.55
2022-10-08T02:22:17.933Z,11.60
2022-10-08T02:22:58.702Z,11.45
2022-10-08T02:23:35.878Z,11.80
2022-10-08T02:24:13.307Z,11.18
2022-10-08T02:24:50.299Z,10.05
2022-10-08T02:25:30.073Z,11.10
2022-10-08T02:26:05.191Z,11.50
2022-10-08T02:26:41.592Z,11.05
2022-10-08T02:27:16.049Z,10.80
2022-10-08T02:27:55.652Z,11.02
2022-10-08T02:28:36.441Z,11.60
2022-10-08T02:29:14.408Z,11.48
2022-10-08T02:29:57.430Z,10.95
2022-10-08T02:30:37.158Z,10.65
2022-10-08T02:31:15.120Z,9.57
2022-10-08T02:31:50.350Z,10.45
2022-10-08T02:32:28.896Z,11.63
2022-10-08T02:33:05.154Z,11.15
2022-10-08T02:33:42.291Z,10.40
2022-10-08T02:34:19.353Z,10.40
2022-10-08T02:34:56.084Z,11.20
2022-10-08T02:35:36.567Z,10.32
2022-10-08T02:36:09.885Z,11.05
2022-10-08T02:36:44.596Z,10.77
2022-10-08T02:37:20.853Z,11.70
2022-10-08T02:37:57.709Z,9.50
2022-10-08T02:38:40.571Z,11.55
2022-10-08T02:39:14.655Z,10.20
2022-10-08T02:39:50.200Z,9.57
2022-10-08T02:40:24.841Z,9.68
2022-10-08T02:40:59.845Z,10.57
2022-10-08T02:41:35.541Z,9.70
2022-10-08T02:42:11.070Z,10.70
2022-10-08T02:42:47.573Z,9.90
2022-10-08T02:43:25.422Z,10.25
2022-10-08T02:44:05.993Z,10.55
2022-10-08T02:44:43.212Z,10.85
2022-10-08T02:45:20.244Z,9.75
2022-10-08T02:45:56.730Z,10.82
2022-10-08T02:46:34.093Z,9.25
2022-10-08T02:47:10.668Z,10.75
2022-10-08T02:47:45.858Z,9.85
2022-10-08T02:48:24.225Z,10.05
2022-10-08T02:49:01.097Z,10.00
2022-10-08T02:49:38.898Z,10.60
2022-10-08T02:50:16.432Z,9.00
2022-10-08T02:50:51.320Z,9.27
2022-10-08T02:51:25.476Z,10.85
2022-10-08T02:52:01.457Z,10.13
2022-10-08T02:52:36.981Z,9.45
2022-10-08T02:53:14.416Z,9.02
2022-10-08T02:53:48.177Z,9.00
2022-10-08T02:54:22.487Z,9.70
2022-10-08T02:54:56.329Z,9.65
2022-10-08T02:55:36.854Z,9.32
2022-10-08T02:56:14.378Z,10.23
2022-10-08T02:56:49.924Z,9.68
2022-10-08T02:57:27.524Z,10.20
2022-10-08T02:58:04.078Z,9.45
2022-10-08T02:58:36.233Z,9.70
2022-10-08T02:59:10.669Z,9.55
2022-10-08T02:59:44.140Z,10.35
2022-10-08T03:00:16.328Z,10.88
2022-10-08T03:00:52.823Z,10.65
2022-10-08T03:01:36.595Z,8.75
2022-10-08T03:02:11.873Z,9.75
2022-10-08T03:02:52.216Z,9.88
2022-10-08T03:03:31.078Z,10.00
2022-10-08T03:04:07.871Z,8.80
2022-10-08T03:04:43.224Z,10.43
2022-10-08T03:05:19.736Z,8.93
2022-10-08T03:05:52.571Z,8.05
2022-10-08T03:06:26.226Z,8.98
2022-10-08T03:07:00.251Z,9.38
2022-10-08T03:07:34.853Z,8.55
2022-10-08T03:08:10.258Z,10.35
2022-10-08T03:08:46.554Z,9.52
2022-10-08T03:09:20.170Z,9.70
2022-10-08T03:09:53.525Z,8.10
2022-10-08T03:10:28.910Z,8.40
2022-10-08T03:11:00.782Z,8.45
2022-10-08T03:11:33.867Z,9.02
2022-10-08T03:12:07.254Z,8.93
2022-10-08T03:12:39.382Z,9.15
2022-10-08T03:13:12.563Z,9.07
2022-10-08T03:13:47.887Z,8.75
2022-10-08T03:14:23.785Z,8.73
2022-10-08T03:14:55.844Z,9.07
2022-10-08T03:15:28.045Z,8.48
2022-10-08T03:16:00.875Z,8.85
2022-10-08T03:16:37.829Z,10.30
2022-10-08T03:17:13.352Z,7.45
2022-10-08T03:17:48.203Z,9.55
2022-10-08T03:18:22.125Z,8.55
2022-10-08T03:18:58.850Z,8.63
2022-10-08T03:19:31.638Z,8.85
2022-10-08T03:20:05.915Z,8.90
2022-10-08T03:20:44.855Z,8.77
2022-10-08T03:21:17.904Z,8.55
2022-10-08T03:21:53.465Z,8.32
2022-10-08T03:22:25.452Z,8.50
2022-10-08T03:23:01.532Z,9.18
2022-10-08T03:23:33.355Z,8.50
2022-10-08T03:24:05.687Z,10.02
2022-10-08T03:24:38.530Z,8.35
2022-10-08T03:25:10.357Z,7.72
2022-10-08T03:25:42.132Z,8.07
2022-10-08T03:26:17.967Z,8.43
2022-10-08T03:26:49.768Z,8.95
2022-10-08T03:27:21.546Z,8.38
2022-10-08T03:27:53.334Z,8.07
2022-10-08T03:28:26.196Z,8.23
2022-10-08T03:28:58.028Z,7.90
2022-10-08T03:29:31.399Z,7.80
2022-10-08T03:30:05.300Z,7.70
2022-10-08T03:30:37.289Z,8.27
2022-10-08T03:31:09.153Z,8.80
2022-10-08T03:31:40.987Z,7.88
2022-10-08T03:32:13.761Z,8.35
2022-10-08T03:32:45.720Z,8.60
2022-10-08T03:33:17.716Z,9.10
2022-10-08T03:33:50.527Z,8.90
2022-10-08T03:34:25.300Z,8.32
2022-10-08T03:34:57.423Z,7.63
2022-10-08T03:35:29.287Z,7.45
2022-10-08T03:36:02.079Z,7.95
2022-10-08T03:36:34.890Z,8.35
2022-10-08T03:37:06.678Z,8.88
2022-10-08T03:37:39.676Z,7.85
2022-10-08T03:38:12.508Z,7.93
2022-10-08T03:38:44.452Z,7.80
2022-10-08T03:39:16.409Z,7.35
2022-10-08T03:39:48.183Z,7.72
2022-10-08T03:40:21.028Z,7.30
2022-10-08T03:40:55.251Z,8.40
2022-10-08T03:41:27.106Z,7.57
2022-10-08T03:41:59.865Z,8.13
2022-10-08T03:42:31.697Z,8.50
2022-10-08T03:43:03.633Z,8.45
2022-10-08T03:43:36.744Z,8.30
2022-10-08T03:44:09.416Z,8.60
2022-10-08T03:44:42.617Z,9.13
2022-10-08T03:45:15.629Z,7.65
2022-10-08T03:45:50.441Z,7.78
2022-10-08T03:46:22.371Z,8.07
2022-10-08T03:46:55.239Z,7.38
2022-10-08T03:47:27.262Z,8.40
2022-10-08T03:47:59.114Z,7.53
2022-10-08T03:48:32.059Z,8.23
2022-10-08T03:49:04.176Z,8.43
2022-10-08T03:49:35.946Z,7.70
2022-10-08T03:50:09.589Z,8.40
2022-10-08T03:50:50.703Z,8.25
2022-10-08T03:51:23.670Z,7.65
2022-10-08T03:51:56.422Z,8.30
2022-10-08T03:52:30.132Z,7.18
2022-10-08T03:53:01.894Z,8.70
2022-10-08T03:53:36.757Z,8.05
2022-10-08T03:54:09.538Z,7.93
2022-10-08T03:54:41.378Z,7.85
2022-10-08T03:55:13.278Z,8.25
2022-10-08T03:55:46.021Z,8.30
2022-10-08T03:56:19.483Z,7.93
2022-10-08T03:56:51.259Z,8.02
2022-10-08T03:57:24.030Z,8.20
2022-10-08T03:57:55.857Z,8.70
2022-10-08T03:58:27.752Z,8.30
2022-10-08T03:59:01.272Z,8.63
2022-10-08T03:59:33.067Z,8.20
2022-10-08T04:00:07.772Z,9.02
2022-10-08T04:00:40.558Z,7.38
2022-10-08T04:01:14.800Z,8.40
2022-10-08T04:01:46.706Z,7.65
2022-10-08T04:02:19.550Z,7.97
2022-10-08T04:02:52.162Z,8.10
2022-10-08T04:03:24.224Z,7.60
2022-10-08T04:03:57.411Z,9.13
2022-10-08T04:04:29.226Z,7.53
2022-10-08T04:05:01.035Z,7.78
2022-10-08T04:05:34.117Z,7.60
2022-10-08T04:06:06.688Z,8.07
2022-10-08T04:06:38.467Z,7.88
2022-10-08T04:07:11.231Z,7.65
2022-10-08T04:07:43.037Z,7.50
2022-10-08T04:08:14.815Z,7.95
2022-10-08T04:08:47.625Z,7.70
2022-10-08T04:09:19.492Z,7.68
2022-10-08T04:09:51.266Z,7.47
2022-10-08T04:10:23.098Z,7.45
2022-10-08T04:10:56.253Z,8.65
2022-10-08T04:11:28.833Z,7.75
2022-10-08T04:12:00.662Z,7.63
2022-10-08T04:12:33.436Z,7.28
2022-10-08T04:13:05.287Z,6.40
2022-10-08T04:13:37.818Z,6.85
2022-10-08T04:14:10.576Z,6.90
2022-10-08T04:14:42.348Z,8.27
2022-10-08T04:15:15.659Z,7.85
2022-10-08T04:15:48.501Z,6.70
2022-10-08T04:16:21.464Z,7.43
2022-10-08T04:16:54.271Z,8.25
2022-10-08T04:17:26.066Z,7.97
2022-10-08T04:17:58.781Z,7.85
2022-10-08T04:18:30.941Z,9.10
2022-10-08T04:19:02.762Z,6.85
2022-10-08T04:19:35.884Z,8.10
2022-10-08T04:20:08.573Z,8.25
2022-10-08T04:20:40.959Z,6.78
2022-10-08T04:21:16.426Z,7.60
2022-10-08T04:21:48.213Z,7.55
2022-10-08T04:22:20.015Z,7.90
2022-10-08T04:22:52.808Z,8.30
2022-10-08T04:23:24.710Z,7.55
2022-10-08T04:23:56.635Z,7.78
2022-10-08T04:24:29.376Z,7.68
2022-10-08T04:25:01.213Z,7.70
2022-10-08T04:25:33.061Z,7.10
2022-10-08T04:26:07.060Z,8.48
2022-10-08T04:26:38.866Z,8.25
2022-10-08T04:27:10.648Z,7.95
2022-10-08T04:27:43.498Z,7.68
2022-10-08T04:28:15.326Z,7.20
2022-10-08T04:28:48.077Z,7.55
2022-10-08T04:29:20.955Z,6.40
2022-10-08T04:29:52.776Z,7.68
2022-10-08T04:30:25.940Z,8.10
2022-10-08T04:30:59.989Z,7.40
2022-10-08T04:31:31.813Z,7.10
2022-10-08T04:32:04.665Z,7.80
2022-10-08T04:32:36.469Z,6.82
2022-10-08T04:33:08.282Z,7.05
2022-10-08T04:33:41.341Z,8.30
2022-10-08T04:34:13.299Z,7.70
2022-10-08T04:34:46.037Z,6.40
2022-10-08T04:35:17.856Z,7.60
2022-10-08T04:35:49.720Z,7.90
2022-10-08T04:36:24.406Z,7.53
2022-10-08T04:36:56.206Z,6.97
2022-10-08T04:37:28.714Z,6.97
2022-10-08T04:38:00.951Z,7.57
2022-10-08T04:38:33.716Z,6.78
2022-10-08T04:39:05.487Z,7.95
2022-10-08T04:39:37.267Z,7.55
2022-10-08T04:40:10.866Z,8.00
2022-10-08T04:40:42.669Z,7.45
2022-10-08T04:41:16.157Z,7.20
2022-10-08T04:41:48.925Z,9.05
2022-10-08T04:42:20.687Z,8.02
2022-10-08T04:42:52.576Z,7.72
2022-10-08T04:43:24.415Z,6.93
2022-10-08T04:44:01.574Z,7.30
2022-10-08T04:44:33.371Z,7.63
2022-10-08T04:45:05.908Z,7.05
2022-10-08T04:45:43.742Z,7.70
2022-10-08T04:46:18.386Z,8.07
2022-10-08T04:46:50.217Z,8.65
2022-10-08T04:47:21.999Z,7.40
2022-10-08T04:47:54.740Z,7.30
2022-10-08T04:48:26.532Z,8.10
2022-10-08T04:49:00.033Z,7.40
2022-10-08T04:49:31.782Z,7.47
2022-10-08T04:50:04.015Z,6.85
2022-10-08T04:50:36.077Z,7.72
2022-10-08T04:51:10.761Z,7.28
2022-10-08T04:51:42.934Z,6.45
2022-10-08T04:52:17.134Z,7.60
2022-10-08T04:52:50.008Z,8.13
2022-10-08T04:53:21.884Z,8.57
2022-10-08T04:53:55.198Z,8.10
2022-10-08T04:54:27.957Z,7.30
2022-10-08T04:54:59.750Z,7.10
2022-10-08T04:55:31.590Z,7.10
2022-10-08T04:56:12.132Z,10.65
2022-10-08T04:56:44.929Z,10.70
2022-10-08T04:57:16.733Z,11.55
2022-10-08T04:57:48.475Z,8.70
2022-10-08T04:58:20.973Z,7.93
2022-10-08T04:58:54.984Z,13.00
2022-10-08T04:59:27.029Z,9.95
2022-10-08T05:00:17.550Z,9.27
2022-10-08T05:00:52.187Z,8.68
2022-10-08T05:01:25.678Z,7.53
2022-10-08T05:01:57.680Z,7.50
2022-10-08T05:02:30.526Z,7.70
2022-10-08T05:03:02.380Z,7.82
2022-10-08T05:03:36.757Z,6.70
2022-10-08T05:04:09.550Z,7.00
2022-10-08T05:04:41.398Z,6.68
2022-10-08T05:05:13.400Z,8.05
2022-10-08T05:05:46.597Z,7.55
2022-10-08T05:06:21.309Z,7.75
2022-10-08T05:06:53.085Z,7.05
2022-10-08T05:07:25.949Z,6.95
2022-10-08T05:07:58.669Z,7.03
2022-10-08T05:08:30.432Z,6.70
2022-10-08T05:09:04.062Z,7.03
2022-10-08T05:09:35.878Z,7.38
2022-10-08T05:10:08.381Z,6.93
2022-10-08T05:10:47.179Z,6.97
2022-10-08T05:11:20.743Z,8.35
2022-10-08T05:11:52.518Z,7.80
2022-10-08T05:12:24.406Z,7.40
2022-10-08T05:12:56.275Z,7.72
2022-10-08T05:13:29.074Z,7.20
2022-10-08T05:14:01.422Z,7.20
2022-10-08T05:14:34.124Z,7.57
2022-10-08T05:15:07.665Z,7.32
2022-10-08T05:15:39.440Z,7.88
2022-10-08T05:16:15.409Z,7.50
2022-10-08T05:16:48.610Z,7.47
2022-10-08T05:17:20.395Z,8.13
2022-10-08T05:17:52.154Z,7.63
2022-10-08T05:18:24.878Z,7.53
2022-10-08T05:18:57.330Z,7.80
2022-10-08T05:19:30.059Z,6.57
2022-10-08T05:20:02.406Z,7.00
2022-10-08T05:20:36.248Z,7.20
2022-10-08T05:21:11.397Z,7.47
2022-10-08T05:21:43.233Z,6.95
2022-10-08T05:22:15.028Z,7.30
2022-10-08T05:22:47.668Z,6.70
2022-10-08T05:23:21.241Z,7.55
2022-10-08T05:23:56.545Z,6.55
2022-10-08T05:24:28.400Z,6.80
2022-10-08T05:25:01.149Z,6.60
2022-10-08T05:25:33.700Z,8.77
2022-10-08T05:26:12.732Z,6.55
2022-10-08T05:26:58.133Z,8.00
2022-10-08T05:27:31.101Z,6.70
2022-10-08T05:28:04.021Z,6.60
2022-10-08T05:28:37.039Z,8.00
2022-10-08T05:29:10.933Z,7.80
2022-10-08T05:29:42.733Z,8.18
2022-10-08T05:30:19.722Z,7.30
2022-10-08T05:30:59.189Z,8.18
2022-10-08T05:31:33.089Z,6.95
2022-10-08T05:32:05.917Z,7.72
2022-10-08T05:32:37.684Z,7.60
2022-10-08T05:33:09.474Z,7.90
2022-10-08T05:33:42.479Z,7.57
2022-10-08T05:34:15.047Z,7.85
2022-10-08T05:34:46.835Z,6.63
2022-10-08T05:35:19.837Z,6.82
2022-10-08T05:35:51.652Z,9.23
2022-10-08T05:36:25.530Z,7.15
2022-10-08T05:36:58.323Z,7.53
2022-10-08T05:37:30.131Z,7.65
2022-10-08T05:38:01.929Z,6.88
2022-10-08T05:38:35.318Z,7.07
2022-10-08T05:39:08.687Z,7.75
2022-10-08T05:39:40.564Z,7.88
2022-10-08T05:40:12.372Z,6.68
2022-10-08T05:40:45.118Z,6.97
2022-10-08T05:41:19.355Z,6.75
2022-10-08T05:41:51.672Z,7.53
2022-10-08T05:42:24.387Z,6.78
2022-10-08T05:42:56.187Z,7.38
2022-10-08T05:43:27.970Z,7.45
2022-10-08T05:44:01.902Z,7.22
2022-10-08T05:44:37.461Z,7.10
2022-10-08T05:45:10.617Z,8.35
2022-10-08T05:45:51.015Z,6.45
2022-10-08T05:46:25.095Z,7.55
2022-10-08T05:46:58.515Z,6.95
2022-10-08T05:47:31.300Z,9.13
2022-10-08T05:48:03.112Z,12.55
2022-10-08T05:48:35.274Z,14.35
2022-10-08T05:49:19.739Z,15.25
2022-10-08T05:49:51.564Z,11.30
2022-10-08T05:50:23.357Z,8.88
2022-10-08T05:50:56.114Z,7.35
2022-10-08T05:51:28.572Z,7.60
2022-10-08T05:52:00.377Z,7.07
2022-10-08T05:52:33.128Z,7.10
2022-10-08T05:53:09.087Z,7.35
2022-10-08T05:53:42.960Z,7.05
2022-10-08T05:54:16.151Z,6.20
2022-10-08T05:54:47.920Z,6.57
2022-10-08T05:55:19.748Z,7.00
2022-10-08T05:56:00.713Z,6.93
2022-10-08T05:56:32.489Z,6.90
2022-10-08T05:57:05.320Z,6.50
2022-10-08T05:57:37.089Z,7.38
2022-10-08T05:58:08.873Z,5.95
2022-10-08T05:58:42.175Z,7.50
2022-10-08T05:59:18.672Z,6.85
2022-10-08T05:59:50.433Z,7.05
2022-10-08T06:00:22.216Z,6.43
2022-10-08T06:00:58.517Z,6.00
2022-10-08T06:01:32.059Z,6.13
2022-10-08T06:02:06.943Z,6.18
2022-10-08T06:02:38.768Z,6.75
2022-10-08T06:03:10.725Z,6.50
2022-10-08T06:03:43.992Z,7.00
2022-10-08T06:04:15.925Z,8.50
2022-10-08T06:04:48.726Z,6.65
2022-10-08T06:05:21.510Z,6.05
2022-10-08T06:05:53.465Z,7.05
2022-10-08T06:06:25.828Z,6.88
2022-10-08T06:06:58.569Z,6.40
2022-10-08T06:07:30.415Z,6.63
2022-10-08T06:08:02.225Z,7.07
2022-10-08T06:08:35.552Z,5.57
2022-10-08T06:09:09.560Z,6.80
2022-10-08T06:09:41.370Z,7.63
2022-10-08T06:10:13.303Z,6.38
2022-10-08T06:10:50.106Z,7.13
2022-10-08T06:11:22.097Z,7.43
2022-10-08T06:11:53.861Z,6.85
2022-10-08T06:12:26.595Z,6.55
2022-10-08T06:12:58.356Z,5.85
2022-10-08T06:13:30.437Z,6.43
2022-10-08T06:14:03.677Z,6.35
2022-10-08T06:14:35.528Z,6.57
2022-10-08T06:15:07.818Z,6.07
2022-10-08T06:15:40.789Z,6.35
2022-10-08T06:16:12.684Z,6.22
2022-10-08T06:16:44.757Z,6.00
2022-10-08T06:17:18.834Z,6.68
2022-10-08T06:17:50.994Z,6.10
2022-10-08T06:18:23.216Z,7.30
2022-10-08T06:18:56.367Z,6.95
2022-10-08T06:19:28.157Z,6.85
2022-10-08T06:19:59.902Z,6.47
2022-10-08T06:20:32.667Z,5.82
2022-10-08T06:21:06.344Z,6.60
2022-10-08T06:21:39.250Z,6.68
2022-10-08T06:22:11.024Z,5.70
2022-10-08T06:22:42.765Z,6.15
2022-10-08T06:23:15.590Z,6.80
2022-10-08T06:23:49.294Z,6.50
2022-10-08T06:24:21.604Z,6.53
2022-10-08T06:24:54.318Z,7.22
2022-10-08T06:25:26.062Z,7.00
2022-10-08T06:26:02.634Z,6.18
2022-10-08T06:26:36.624Z,6.55
2022-10-08T06:27:09.374Z,5.80
2022-10-08T06:27:41.160Z,7.38
2022-10-08T06:28:13.449Z,5.95
2022-10-08T06:28:46.673Z,6.22
2022-10-08T06:29:19.080Z,6.95
2022-10-08T06:29:50.839Z,7.40
2022-10-08T06:30:23.565Z,8.80
2022-10-08T06:30:55.343Z,8.15
2022-10-08T06:31:27.353Z,8.18
2022-10-08T06:32:00.135Z,7.50
2022-10-08T06:32:33.548Z,7.85
2022-10-08T06:33:05.310Z,7.75
2022-10-08T06:33:38.129Z,6.55
2022-10-08T06:34:10.456Z,6.93
2022-10-08T06:34:42.260Z,7.45
2022-10-08T06:35:15.149Z,7.60
2022-10-08T06:35:46.917Z,7.22
2022-10-08T06:36:20.641Z,6.30
2022-10-08T06:36:53.370Z,7.53
2022-10-08T06:37:25.125Z,6.13
2022-10-08T06:37:56.928Z,6.90
2022-10-08T06:38:29.665Z,7.07
2022-10-08T06:39:04.300Z,6.75
2022-10-08T06:39:37.074Z,7.60
2022-10-08T06:40:09.610Z,6.68
2022-10-08T06:40:41.394Z,5.80
2022-10-08T06:41:14.143Z,5.97
2022-10-08T06:41:45.936Z,7.78
2022-10-08T06:42:18.652Z,7.40
2022-10-08T06:42:50.716Z,6.72
2022-10-08T06:43:22.461Z,6.07
2022-10-08T06:43:55.581Z,6.50
2022-10-08T06:44:28.334Z,7.75
2022-10-08T06:45:02.359Z,7.75
2022-10-08T06:45:38.476Z,6.80
2022-10-08T06:46:11.226Z,6.03
2022-10-08T06:46:43.279Z,6.63
2022-10-08T06:47:15.167Z,5.45
2022-10-08T06:47:49.398Z,7.25
2022-10-08T06:48:21.178Z,6.25
2022-10-08T06:48:53.801Z,6.35
2022-10-08T06:49:27.082Z,6.05
2022-10-08T06:49:58.884Z,6.40
2022-10-08T06:50:30.700Z,7.28
2022-10-08T06:51:05.324Z,6.32
2022-10-08T06:51:38.278Z,7.60
2022-10-08T06:52:11.643Z,8.00
2022-10-08T06:52:43.508Z,7.22
2022-10-08T06:53:16.325Z,7.47
2022-10-08T06:53:53.265Z,6.07
2022-10-08T06:54:27.321Z,6.90
2022-10-08T06:54:59.101Z,6.55
2022-10-08T06:55:32.126Z,6.45
2022-10-08T06:56:07.390Z,5.82
2022-10-08T06:56:39.218Z,6.60
2022-10-08T06:57:10.961Z,6.90
2022-10-08T06:57:43.703Z,6.05
2022-10-08T06:58:15.473Z,6.93
2022-10-08T06:58:47.691Z,6.18
2022-10-08T06:59:20.460Z,7.20
2022-10-08T06:59:54.320Z,6.53
2022-10-08T07:00:26.290Z,6.82
2022-10-08T07:01:03.610Z,7.13
2022-10-08T07:01:36.236Z,6.65
2022-10-08T07:02:11.717Z,6.47
2022-10-08T07:02:44.610Z,7.03
2022-10-08T07:03:17.995Z,6.40
2022-10-08T07:03:52.205Z,5.80
2022-10-08T07:04:23.947Z,6.32
2022-10-08T07:04:56.676Z,6.47
2022-10-08T07:05:28.466Z,6.00
2022-10-08T07:06:01.026Z,7.00
2022-10-08T07:06:34.250Z,5.70
2022-10-08T07:07:05.994Z,6.60
2022-10-08T07:07:37.798Z,6.40
2022-10-08T07:08:09.573Z,5.95
2022-10-08T07:08:42.266Z,6.40
2022-10-08T07:09:14.081Z,6.60
2022-10-08T07:09:45.848Z,6.90
2022-10-08T07:10:18.823Z,6.30
2022-10-08T07:10:51.237Z,6.88
2022-10-08T07:11:24.132Z,7.22
2022-10-08T07:11:56.865Z,6.18
2022-10-08T07:12:28.656Z,6.32
2022-10-08T07:13:00.409Z,6.68
2022-10-08T07:13:32.211Z,5.55
2022-10-08T07:14:05.169Z,6.03
2022-10-08T07:14:36.920Z,6.70
2022-10-08T07:15:09.953Z,8.35
2022-10-08T07:15:41.714Z,6.40
2022-10-08T07:16:20.592Z,7.15
2022-10-08T07:16:53.048Z,6.72
2022-10-08T07:17:28.324Z,5.90
2022-10-08T07:18:00.096Z,6.30
2022-10-08T07:18:34.314Z,5.70
2022-10-08T07:19:07.087Z,6.68
2022-10-08T07:19:38.858Z,6.78
2022-10-08T07:20:10.777Z,6.10
2022-10-08T07:20:43.485Z,6.22
2022-10-08T07:21:17.251Z,7.15
2022-10-08T07:21:49.046Z,6.95
2022-10-08T07:22:21.921Z,6.10
2022-10-08T07:22:53.683Z,6.15
2022-10-08T07:23:26.229Z,6.03
2022-10-08T07:24:00.849Z,6.07
2022-10-08T07:24:32.622Z,5.97
2022-10-08T07:25:04.954Z,6.80
2022-10-08T07:25:36.846Z,7.00
2022-10-08T07:26:12.980Z,6.60
2022-10-08T07:26:44.778Z,9.30
2022-10-08T07:27:17.940Z,7.57
2022-10-08T07:27:50.686Z,7.82
2022-10-08T07:28:22.536Z,6.90
2022-10-08T07:28:56.385Z,7.55
2022-10-08T07:29:29.228Z,7.78
2022-10-08T07:30:01.035Z,5.63
2022-10-08T07:30:36.074Z,7.53